Coolidge, Georgia
Current Conditions -  °F | °C
As of 4:35 AM on Monday 24 Nov 2014 (Local Time) from KMGR Reporting Station
Haze Haze  
Wind Chill: 68°   Ceiling: 300
Heat Index: 68°   Visibility: 2.5mi
Dew Point: 68°   Wind: 6mph
Humidity: 100%   Direction: 170°S
Pressure: 29.82"   Gusts: NA
Location:  31.01°N, 83.87°W
Report Text: KMGR 240935Z AUTO 17005KT 2 1/2SM BR OVC003 20/20 A2982 RMK AO2
Loading
Personal Weather Stations






























Interactive Weather Map New forecast layout! Learn more

10-Day Weather Forecast

Advertisements
Track Severe Weather on mobile